sensor_id;sensor_type;location;lat;lon;timestamp;temperature;humidity
10306;DHT22;5198;52.382;9.020;2022-12-29T00:02:40;10.50;99.90
10306;DHT22;5198;52.382;9.020;2022-12-29T00:06:45;10.50;99.90
10306;DHT22;5198;52.382;9.020;2022-12-29T00:10:48;10.60;99.90
10306;DHT22;5198;52.382;9.020;2022-12-29T00:14:50;10.60;99.90
10306;DHT22;5198;52.382;9.020;2022-12-29T00:19:11;10.60;99.90
10306;DHT22;5198;52.382;9.020;2022-12-29T00:23:30;10.70;99.90
10306;DHT22;5198;52.382;9.020;2022-12-29T00:27:50;10.70;99.90
10306;DHT22;5198;52.382;9.020;2022-12-29T00:32:10;10.70;99.90
10306;DHT22;5198;52.382;9.020;2022-12-29T00:36:31;10.70;99.90
10306;DHT22;5198;52.382;9.020;2022-12-29T00:40:36;10.80;99.90
10306;DHT22;5198;52.382;9.020;2022-12-29T00:44:57;10.80;99.90
10306;DHT22;5198;52.382;9.020;2022-12-29T00:49:00;10.80;99.90
10306;DHT22;5198;52.382;9.020;2022-12-29T00:53:20;10.80;99.90
10306;DHT22;5198;52.382;9.020;2022-12-29T00:57:25;10.90;99.90
10306;DHT22;5198;52.382;9.020;2022-12-29T01:01:28;10.90;99.90
10306;DHT22;5198;52.382;9.020;2022-12-29T01:05:31;10.90;99.90
10306;DHT22;5198;52.382;9.020;2022-12-29T01:09:34;11.00;99.90
10306;DHT22;5198;52.382;9.020;2022-12-29T01:13:56;11.00;99.90
10306;DHT22;5198;52.382;9.020;2022-12-29T01:17:59;11.00;99.90
10306;DHT22;5198;52.382;9.020;2022-12-29T01:22:02;11.00;99.90
10306;DHT22;5198;52.382;9.020;2022-12-29T01:26:08;11.10;99.90
10306;DHT22;5198;52.382;9.020;2022-12-29T01:30:12;11.10;99.90
10306;DHT22;5198;52.382;9.020;2022-12-29T01:34:15;11.10;99.90
10306;DHT22;5198;52.382;9.020;2022-12-29T01:38:18;11.20;99.90
10306;DHT22;5198;52.382;9.020;2022-12-29T01:42:22;11.20;99.90
10306;DHT22;5198;52.382;9.020;2022-12-29T01:46:28;11.20;99.90
10306;DHT22;5198;52.382;9.020;2022-12-29T01:50:33;11.20;99.90
10306;DHT22;5198;52.382;9.020;2022-12-29T01:54:39;11.20;99.90
10306;DHT22;5198;52.382;9.020;2022-12-29T01:58:44;11.20;99.90
10306;DHT22;5198;52.382;9.020;2022-12-29T02:02:49;11.20;99.90
10306;DHT22;5198;52.382;9.020;2022-12-29T02:06:54;11.30;99.90
10306;DHT22;5198;52.382;9.020;2022-12-29T02:10:59;11.30;99.90
10306;DHT22;5198;52.382;9.020;2022-12-29T02:15:02;11.30;99.90
10306;DHT22;5198;52.382;9.020;2022-12-29T02:19:25;11.30;99.90
10306;DHT22;5198;52.382;9.020;2022-12-29T02:23:44;11.40;99.90
10306;DHT22;5198;52.382;9.020;2022-12-29T02:32:21;11.40;99.90
10306;DHT22;5198;52.382;9.020;2022-12-29T02:36:28;11.40;99.90
10306;DHT22;5198;52.382;9.020;2022-12-29T02:40:37;11.50;99.90
10306;DHT22;5198;52.382;9.020;2022-12-29T02:44:44;11.50;99.90
10306;DHT22;5198;52.382;9.020;2022-12-29T02:48:52;11.50;99.90
10306;DHT22;5198;52.382;9.020;2022-12-29T02:52:59;11.50;99.90
10306;DHT22;5198;52.382;9.020;2022-12-29T02:57:02;11.60;99.90
10306;DHT22;5198;52.382;9.020;2022-12-29T03:01:11;11.60;99.90
10306;DHT22;5198;52.382;9.020;2022-12-29T03:05:23;11.60;99.90
10306;DHT22;5198;52.382;9.020;2022-12-29T03:09:30;11.70;99.90
10306;DHT22;5198;52.382;9.020;2022-12-29T03:13:39;11.70;99.90
10306;DHT22;5198;52.382;9.020;2022-12-29T03:18:04;11.70;99.90
10306;DHT22;5198;52.382;9.020;2022-12-29T03:22:10;11.70;99.90
10306;DHT22;5198;52.382;9.020;2022-12-29T03:26:32;11.70;99.90
10306;DHT22;5198;52.382;9.020;2022-12-29T03:30:35;11.70;99.90
10306;DHT22;5198;52.382;9.020;2022-12-29T03:34:38;11.70;99.90
10306;DHT22;5198;52.382;9.020;2022-12-29T03:38:43;11.70;99.90
10306;DHT22;5198;52.382;9.020;2022-12-29T03:42:47;11.80;99.90
10306;DHT22;5198;52.382;9.020;2022-12-29T03:46:50;11.70;99.90
10306;DHT22;5198;52.382;9.020;2022-12-29T03:50:53;11.80;99.90
10306;DHT22;5198;52.382;9.020;2022-12-29T03:54:57;11.80;99.90
10306;DHT22;5198;52.382;9.020;2022-12-29T03:59:00;11.80;99.90
10306;DHT22;5198;52.382;9.020;2022-12-29T04:03:03;11.80;99.90
10306;DHT22;5198;52.382;9.020;2022-12-29T04:07:06;11.90;99.90
10306;DHT22;5198;52.382;9.020;2022-12-29T04:11:11;11.90;99.90
10306;DHT22;5198;52.382;9.020;2022-12-29T04:15:14;11.90;99.90
10306;DHT22;5198;52.382;9.020;2022-12-29T04:19:18;11.90;99.90
10306;DHT22;5198;52.382;9.020;2022-12-29T04:23:21;11.90;99.90
10306;DHT22;5198;52.382;9.020;2022-12-29T04:27:25;12.00;99.90
10306;DHT22;5198;52.382;9.020;2022-12-29T04:31:28;12.00;99.90
10306;DHT22;5198;52.382;9.020;2022-12-29T04:35:31;12.00;99.90
10306;DHT22;5198;52.382;9.020;2022-12-29T04:39:34;12.00;99.90
10306;DHT22;5198;52.382;9.020;2022-12-29T04:43:38;12.00;99.90
10306;DHT22;5198;52.382;9.020;2022-12-29T04:47:41;12.00;99.90
10306;DHT22;5198;52.382;9.020;2022-12-29T04:51:44;12.10;99.90
10306;DHT22;5198;52.382;9.020;2022-12-29T04:55:48;12.10;99.90
10306;DHT22;5198;52.382;9.020;2022-12-29T04:59:52;12.10;99.90
10306;DHT22;5198;52.382;9.020;2022-12-29T05:03:55;12.10;99.90
10306;DHT22;5198;52.382;9.020;2022-12-29T05:07:58;12.10;99.90
10306;DHT22;5198;52.382;9.020;2022-12-29T05:12:01;12.10;99.90
10306;DHT22;5198;52.382;9.020;2022-12-29T05:16:06;12.20;99.90
10306;DHT22;5198;52.382;9.020;2022-12-29T05:20:09;12.20;99.90
10306;DHT22;5198;52.382;9.020;2022-12-29T05:24:11;12.20;99.90
10306;DHT22;5198;52.382;9.020;2022-12-29T05:28:14;12.20;99.90
10306;DHT22;5198;52.382;9.020;2022-12-29T05:32:20;12.20;99.90
10306;DHT22;5198;52.382;9.020;2022-12-29T05:36:23;12.20;99.90
10306;DHT22;5198;52.382;9.020;2022-12-29T05:40:26;12.10;99.90
10306;DHT22;5198;52.382;9.020;2022-12-29T05:44:29;12.10;99.90
10306;DHT22;5198;52.382;9.020;2022-12-29T05:48:33;12.00;99.90
10306;DHT22;5198;52.382;9.020;2022-12-29T05:52:39;12.00;99.90
10306;DHT22;5198;52.382;9.020;2022-12-29T05:56:42;11.90;99.90
10306;DHT22;5198;52.382;9.020;2022-12-29T06:00:44;11.80;99.90
10306;DHT22;5198;52.382;9.020;2022-12-29T06:04:49;11.80;99.90
10306;DHT22;5198;52.382;9.020;2022-12-29T06:08:51;11.80;99.90
10306;DHT22;5198;52.382;9.020;2022-12-29T06:12:54;11.70;99.90
10306;DHT22;5198;52.382;9.020;2022-12-29T06:16:57;11.60;99.90
10306;DHT22;5198;52.382;9.020;2022-12-29T06:21:03;11.60;99.90
10306;DHT22;5198;52.382;9.020;2022-12-29T06:25:06;11.50;99.90
10306;DHT22;5198;52.382;9.020;2022-12-29T06:29:09;11.50;99.90
10306;DHT22;5198;52.382;9.020;2022-12-29T06:33:12;11.40;99.90
10306;DHT22;5198;52.382;9.020;2022-12-29T06:37:16;11.30;99.90
10306;DHT22;5198;52.382;9.020;2022-12-29T06:41:19;11.10;99.90
10306;DHT22;5198;52.382;9.020;2022-12-29T06:45:30;11.00;99.90
10306;DHT22;5198;52.382;9.020;2022-12-29T06:49:33;10.80;99.90
10306;DHT22;5198;52.382;9.020;2022-12-29T06:53:37;10.60;99.90
10306;DHT22;5198;52.382;9.020;2022-12-29T06:57:40;10.50;99.90
10306;DHT22;5198;52.382;9.020;2022-12-29T07:01:43;10.40;99.90
10306;DHT22;5198;52.382;9.020;2022-12-29T07:05:46;10.30;99.90
10306;DHT22;5198;52.382;9.020;2022-12-29T07:09:51;10.20;99.90
10306;DHT22;5198;52.382;9.020;2022-12-29T07:13:53;10.20;99.90
10306;DHT22;5198;52.382;9.020;2022-12-29T07:17:57;10.20;99.90
10306;DHT22;5198;52.382;9.020;2022-12-29T07:22:00;10.10;99.90
10306;DHT22;5198;52.382;9.020;2022-12-29T07:26:05;10.10;99.90
10306;DHT22;5198;52.382;9.020;2022-12-29T07:30:09;10.10;99.90
10306;DHT22;5198;52.382;9.020;2022-12-29T07:34:12;10.00;99.90
10306;DHT22;5198;52.382;9.020;2022-12-29T07:38:15;10.00;99.90
10306;DHT22;5198;52.382;9.020;2022-12-29T07:42:19;10.00;99.90
10306;DHT22;5198;52.382;9.020;2022-12-29T07:46:22;10.00;99.90
10306;DHT22;5198;52.382;9.020;2022-12-29T07:50:45;10.00;99.90
10306;DHT22;5198;52.382;9.020;2022-12-29T07:54:48;10.00;99.90
10306;DHT22;5198;52.382;9.020;2022-12-29T07:58:52;10.00;99.90
10306;DHT22;5198;52.382;9.020;2022-12-29T08:02:55;10.00;99.90
10306;DHT22;5198;52.382;9.020;2022-12-29T08:06:58;10.00;99.90
10306;DHT22;5198;52.382;9.020;2022-12-29T08:11:01;10.00;99.90
10306;DHT22;5198;52.382;9.020;2022-12-29T08:15:07;10.00;99.90
10306;DHT22;5198;52.382;9.020;2022-12-29T08:19:10;10.10;99.90
10306;DHT22;5198;52.382;9.020;2022-12-29T08:23:13;10.10;99.90
10306;DHT22;5198;52.382;9.020;2022-12-29T08:27:16;10.10;99.90
10306;DHT22;5198;52.382;9.020;2022-12-29T08:31:23;10.10;99.90
10306;DHT22;5198;52.382;9.020;2022-12-29T08:35:26;10.10;99.90
10306;DHT22;5198;52.382;9.020;2022-12-29T08:39:28;10.10;99.90
10306;DHT22;5198;52.382;9.020;2022-12-29T08:43:31;10.20;99.90
10306;DHT22;5198;52.382;9.020;2022-12-29T08:47:36;10.20;99.90
10306;DHT22;5198;52.382;9.020;2022-12-29T08:51:38;10.20;99.90
10306;DHT22;5198;52.382;9.020;2022-12-29T08:55:41;10.20;99.90
10306;DHT22;5198;52.382;9.020;2022-12-29T08:59:44;10.20;99.90
10306;DHT22;5198;52.382;9.020;2022-12-29T09:03:48;10.20;99.90
10306;DHT22;5198;52.382;9.020;2022-12-29T09:08:11;10.20;99.90
10306;DHT22;5198;52.382;9.020;2022-12-29T09:12:14;10.50;99.90
10306;DHT22;5198;52.382;9.020;2022-12-29T09:16:17;10.80;99.90
10306;DHT22;5198;52.382;9.020;2022-12-29T09:20:22;11.20;99.90
10306;DHT22;5198;52.382;9.020;2022-12-29T09:24:25;11.40;99.90
10306;DHT22;5198;52.382;9.020;2022-12-29T09:28:28;11.70;99.90
10306;DHT22;5198;52.382;9.020;2022-12-29T09:32:31;11.90;99.90
10306;DHT22;5198;52.382;9.020;2022-12-29T09:36:39;12.10;99.90
10306;DHT22;5198;52.382;9.020;2022-12-29T09:40:43;12.40;99.90
10306;DHT22;5198;52.382;9.020;2022-12-29T09:44:50;12.70;99.90
10306;DHT22;5198;52.382;9.020;2022-12-29T09:48:57;12.80;99.90
10306;DHT22;5198;52.382;9.020;2022-12-29T09:53:04;12.90;99.90
10306;DHT22;5198;52.382;9.020;2022-12-29T09:57:13;13.00;99.90
10306;DHT22;5198;52.382;9.020;2022-12-29T10:01:21;13.20;99.90
10306;DHT22;5198;52.382;9.020;2022-12-29T10:05:29;13.40;99.90
10306;DHT22;5198;52.382;9.020;2022-12-29T10:09:37;13.70;99.90
10306;DHT22;5198;52.382;9.020;2022-12-29T10:13:43;13.80;99.90
10306;DHT22;5198;52.382;9.020;2022-12-29T10:17:52;13.70;99.90
10306;DHT22;5198;52.382;9.020;2022-12-29T10:22:00;13.80;99.90
10306;DHT22;5198;52.382;9.020;2022-12-29T10:26:09;14.20;99.90
10306;DHT22;5198;52.382;9.020;2022-12-29T10:30:13;14.70;99.90
10306;DHT22;5198;52.382;9.020;2022-12-29T10:34:19;15.20;99.90
10306;DHT22;5198;52.382;9.020;2022-12-29T10:38:25;15.50;99.90
10306;DHT22;5198;52.382;9.020;2022-12-29T10:42:33;15.70;99.90
10306;DHT22;5198;52.382;9.020;2022-12-29T10:46:38;16.10;99.90
10306;DHT22;5198;52.382;9.020;2022-12-29T10:50:41;16.50;99.90
10306;DHT22;5198;52.382;9.020;2022-12-29T10:54:45;16.80;99.90
10306;DHT22;5198;52.382;9.020;2022-12-29T10:58:51;17.00;99.90
10306;DHT22;5198;52.382;9.020;2022-12-29T11:03:01;17.10;99.90
10306;DHT22;5198;52.382;9.020;2022-12-29T11:07:05;17.30;99.90
10306;DHT22;5198;52.382;9.020;2022-12-29T11:11:22;17.60;99.90
10306;DHT22;5198;52.382;9.020;2022-12-29T11:15:27;17.80;99.90
10306;DHT22;5198;52.382;9.020;2022-12-29T11:19:30;17.90;99.90
10306;DHT22;5198;52.382;9.020;2022-12-29T11:23:41;18.00;99.90
10306;DHT22;5198;52.382;9.020;2022-12-29T11:27:47;17.70;99.90
10306;DHT22;5198;52.382;9.020;2022-12-29T11:31:58;17.20;99.90
10306;DHT22;5198;52.382;9.020;2022-12-29T11:36:02;16.50;99.90
10306;DHT22;5198;52.382;9.020;2022-12-29T11:40:06;15.90;99.90
10306;DHT22;5198;52.382;9.020;2022-12-29T11:44:19;15.40;99.90
10306;DHT22;5198;52.382;9.020;2022-12-29T11:48:23;15.00;99.90
10306;DHT22;5198;52.382;9.020;2022-12-29T11:52:28;14.60;99.90
10306;DHT22;5198;52.382;9.020;2022-12-29T11:56:33;14.40;99.90
10306;DHT22;5198;52.382;9.020;2022-12-29T12:00:41;14.20;99.90
10306;DHT22;5198;52.382;9.020;2022-12-29T12:04:47;13.90;99.90
10306;DHT22;5198;52.382;9.020;2022-12-29T12:08:51;13.60;99.90
10306;DHT22;5198;52.382;9.020;2022-12-29T12:12:58;13.50;99.90
10306;DHT22;5198;52.382;9.020;2022-12-29T12:17:05;13.30;99.90
10306;DHT22;5198;52.382;9.020;2022-12-29T12:25:35;13.10;99.90
10306;DHT22;5198;52.382;9.020;2022-12-29T12:29:41;13.00;99.90
10306;DHT22;5198;52.382;9.020;2022-12-29T12:33:46;12.80;99.90
10306;DHT22;5198;52.382;9.020;2022-12-29T12:37:56;12.70;99.90
10306;DHT22;5198;52.382;9.020;2022-12-29T12:42:13;12.70;99.90
10306;DHT22;5198;52.382;9.020;2022-12-29T12:46:37;12.60;99.90
10306;DHT22;5198;52.382;9.020;2022-12-29T12:50:45;12.60;99.90
10306;DHT22;5198;52.382;9.020;2022-12-29T12:54:56;12.50;99.90
10306;DHT22;5198;52.382;9.020;2022-12-29T12:59:06;12.40;99.90
10306;DHT22;5198;52.382;9.020;2022-12-29T13:03:13;12.30;99.90
10306;DHT22;5198;52.382;9.020;2022-12-29T13:07:21;12.20;99.90
10306;DHT22;5198;52.382;9.020;2022-12-29T13:11:28;12.20;99.90
10306;DHT22;5198;52.382;9.020;2022-12-29T13:15:41;12.20;99.90
10306;DHT22;5198;52.382;9.020;2022-12-29T13:19:47;12.10;99.90
10306;DHT22;5198;52.382;9.020;2022-12-29T13:23:54;12.10;99.90
10306;DHT22;5198;52.382;9.020;2022-12-29T13:27:59;12.10;99.90
10306;DHT22;5198;52.382;9.020;2022-12-29T13:32:11;12.00;99.90
10306;DHT22;5198;52.382;9.020;2022-12-29T13:36:21;11.90;99.90
10306;DHT22;5198;52.382;9.020;2022-12-29T13:40:25;11.90;99.90
10306;DHT22;5198;52.382;9.020;2022-12-29T13:44:30;11.90;99.90
10306;DHT22;5198;52.382;9.020;2022-12-29T13:48:40;11.80;99.90
10306;DHT22;5198;52.382;9.020;2022-12-29T13:52:48;11.80;99.90
10306;DHT22;5198;52.382;9.020;2022-12-29T13:56:52;11.80;99.90
10306;DHT22;5198;52.382;9.020;2022-12-29T14:00:59;11.80;99.90
10306;DHT22;5198;52.382;9.020;2022-12-29T14:05:28;11.70;99.90
10306;DHT22;5198;52.382;9.020;2022-12-29T14:09:40;11.70;99.90
10306;DHT22;5198;52.382;9.020;2022-12-29T14:13:44;11.70;99.90
10306;DHT22;5198;52.382;9.020;2022-12-29T14:18:04;11.70;99.90
10306;DHT22;5198;52.382;9.020;2022-12-29T14:22:09;11.60;99.90
10306;DHT22;5198;52.382;9.020;2022-12-29T14:26:14;11.60;99.90
10306;DHT22;5198;52.382;9.020;2022-12-29T14:34:38;11.60;99.90
10306;DHT22;5198;52.382;9.020;2022-12-29T14:38:45;11.60;99.90
10306;DHT22;5198;52.382;9.020;2022-12-29T14:42:48;11.60;99.90
10306;DHT22;5198;52.382;9.020;2022-12-29T14:46:55;11.50;99.90
10306;DHT22;5198;52.382;9.020;2022-12-29T14:51:00;11.50;99.90
10306;DHT22;5198;52.382;9.020;2022-12-29T14:59:23;11.50;99.90
10306;DHT22;5198;52.382;9.020;2022-12-29T15:03:28;11.50;99.90
10306;DHT22;5198;52.382;9.020;2022-12-29T15:07:31;11.40;99.90
10306;DHT22;5198;52.382;9.020;2022-12-29T15:11:44;11.30;99.90
10306;DHT22;5198;52.382;9.020;2022-12-29T15:15:51;11.30;99.90
10306;DHT22;5198;52.382;9.020;2022-12-29T15:19:55;11.20;99.90
10306;DHT22;5198;52.382;9.020;2022-12-29T15:23:59;11.20;99.90
10306;DHT22;5198;52.382;9.020;2022-12-29T15:28:03;11.20;99.90
10306;DHT22;5198;52.382;9.020;2022-12-29T15:32:17;11.10;99.90
10306;DHT22;5198;52.382;9.020;2022-12-29T15:36:21;11.10;99.90
10306;DHT22;5198;52.382;9.020;2022-12-29T15:40:25;11.00;99.90
10306;DHT22;5198;52.382;9.020;2022-12-29T15:44:29;11.10;99.90
10306;DHT22;5198;52.382;9.020;2022-12-29T15:48:34;11.10;99.90
10306;DHT22;5198;52.382;9.020;2022-12-29T15:52:38;11.10;99.90
10306;DHT22;5198;52.382;9.020;2022-12-29T15:56:41;11.10;99.90
10306;DHT22;5198;52.382;9.020;2022-12-29T16:00:46;11.10;99.90
10306;DHT22;5198;52.382;9.020;2022-12-29T16:04:51;11.10;99.90
10306;DHT22;5198;52.382;9.020;2022-12-29T16:09:15;11.10;99.90
10306;DHT22;5198;52.382;9.020;2022-12-29T16:13:21;11.10;99.90
10306;DHT22;5198;52.382;9.020;2022-12-29T16:17:27;11.00;99.90
10306;DHT22;5198;52.382;9.020;2022-12-29T16:21:33;11.00;99.90
10306;DHT22;5198;52.382;9.020;2022-12-29T16:25:37;11.00;99.90
10306;DHT22;5198;52.382;9.020;2022-12-29T16:29:41;11.00;99.90
10306;DHT22;5198;52.382;9.020;2022-12-29T16:33:45;11.00;99.90
10306;DHT22;5198;52.382;9.020;2022-12-29T16:38:06;11.00;99.90
10306;DHT22;5198;52.382;9.020;2022-12-29T16:46:31;10.90;99.90
10306;DHT22;5198;52.382;9.020;2022-12-29T16:50:34;10.90;99.90
10306;DHT22;5198;52.382;9.020;2022-12-29T16:54:39;10.90;99.90
10306;DHT22;5198;52.382;9.020;2022-12-29T16:58:45;10.80;99.90
10306;DHT22;5198;52.382;9.020;2022-12-29T17:02:50;10.80;99.90
10306;DHT22;5198;52.382;9.020;2022-12-29T17:06:55;10.70;99.90
10306;DHT22;5198;52.382;9.020;2022-12-29T17:10:59;10.70;99.90
10306;DHT22;5198;52.382;9.020;2022-12-29T17:15:21;10.70;99.90
10306;DHT22;5198;52.382;9.020;2022-12-29T17:19:26;10.70;99.90
10306;DHT22;5198;52.382;9.020;2022-12-29T17:23:31;10.60;99.90
10306;DHT22;5198;52.382;9.020;2022-12-29T17:27:36;10.60;99.90
10306;DHT22;5198;52.382;9.020;2022-12-29T17:31:40;10.60;99.90
10306;DHT22;5198;52.382;9.020;2022-12-29T17:35:43;10.50;99.90
10306;DHT22;5198;52.382;9.020;2022-12-29T17:39:52;10.40;99.90
10306;DHT22;5198;52.382;9.020;2022-12-29T17:43:56;10.30;99.90
10306;DHT22;5198;52.382;9.020;2022-12-29T17:48:00;10.20;99.90
10306;DHT22;5198;52.382;9.020;2022-12-29T17:52:03;10.20;99.90
10306;DHT22;5198;52.382;9.020;2022-12-29T17:56:07;10.10;99.90
10306;DHT22;5198;52.382;9.020;2022-12-29T18:00:15;10.00;99.90
10306;DHT22;5198;52.382;9.020;2022-12-29T18:04:19;9.90;99.90
10306;DHT22;5198;52.382;9.020;2022-12-29T18:08:22;9.90;99.90
10306;DHT22;5198;52.382;9.020;2022-12-29T18:12:26;9.80;99.90
10306;DHT22;5198;52.382;9.020;2022-12-29T18:16:31;9.70;99.90
10306;DHT22;5198;52.382;9.020;2022-12-29T18:20:34;9.70;99.90
10306;DHT22;5198;52.382;9.020;2022-12-29T18:24:37;9.60;99.90
10306;DHT22;5198;52.382;9.020;2022-12-29T18:28:40;9.60;99.90
10306;DHT22;5198;52.382;9.020;2022-12-29T18:32:45;9.50;99.90
10306;DHT22;5198;52.382;9.020;2022-12-29T18:36:48;9.50;99.90
10306;DHT22;5198;52.382;9.020;2022-12-29T18:40:53;9.40;99.90
10306;DHT22;5198;52.382;9.020;2022-12-29T18:44:56;9.40;99.90
10306;DHT22;5198;52.382;9.020;2022-12-29T18:49:00;9.30;99.90
10306;DHT22;5198;52.382;9.020;2022-12-29T18:53:03;9.30;99.90
10306;DHT22;5198;52.382;9.020;2022-12-29T18:57:06;9.30;99.90
10306;DHT22;5198;52.382;9.020;2022-12-29T19:01:12;9.30;99.90
10306;DHT22;5198;52.382;9.020;2022-12-29T19:05:23;9.20;99.90
10306;DHT22;5198;52.382;9.020;2022-12-29T19:09:26;9.20;99.90
10306;DHT22;5198;52.382;9.020;2022-12-29T19:13:28;9.20;99.90
10306;DHT22;5198;52.382;9.020;2022-12-29T19:17:31;9.20;99.90
10306;DHT22;5198;52.382;9.020;2022-12-29T19:21:36;9.20;99.90
10306;DHT22;5198;52.382;9.020;2022-12-29T19:25:39;9.20;99.90
10306;DHT22;5198;52.382;9.020;2022-12-29T19:29:42;9.20;99.90
10306;DHT22;5198;52.382;9.020;2022-12-29T19:33:45;9.20;99.90
10306;DHT22;5198;52.382;9.020;2022-12-29T19:37:49;9.20;99.90
10306;DHT22;5198;52.382;9.020;2022-12-29T19:41:53;9.20;99.90
10306;DHT22;5198;52.382;9.020;2022-12-29T19:46:04;9.20;99.90
10306;DHT22;5198;52.382;9.020;2022-12-29T19:50:08;9.20;99.90
10306;DHT22;5198;52.382;9.020;2022-12-29T19:54:13;9.20;99.90
10306;DHT22;5198;52.382;9.020;2022-12-29T19:58:15;9.20;99.90
10306;DHT22;5198;52.382;9.020;2022-12-29T20:02:19;9.10;99.90
10306;DHT22;5198;52.382;9.020;2022-12-29T20:06:22;9.10;99.90
10306;DHT22;5198;52.382;9.020;2022-12-29T20:10:26;9.00;99.90
10306;DHT22;5198;52.382;9.020;2022-12-29T20:14:29;9.00;99.90
10306;DHT22;5198;52.382;9.020;2022-12-29T20:18:32;9.00;99.90
10306;DHT22;5198;52.382;9.020;2022-12-29T20:22:36;8.90;99.90
10306;DHT22;5198;52.382;9.020;2022-12-29T20:26:41;8.90;99.90
10306;DHT22;5198;52.382;9.020;2022-12-29T20:30:43;8.80;99.90
10306;DHT22;5198;52.382;9.020;2022-12-29T20:34:46;8.80;99.90
10306;DHT22;5198;52.382;9.020;2022-12-29T20:38:50;8.70;99.90
10306;DHT22;5198;52.382;9.020;2022-12-29T20:42:54;8.70;99.90
10306;DHT22;5198;52.382;9.020;2022-12-29T20:46:57;8.60;99.90
10306;DHT22;5198;52.382;9.020;2022-12-29T20:51:01;8.60;99.90
10306;DHT22;5198;52.382;9.020;2022-12-29T20:55:04;8.60;99.90
10306;DHT22;5198;52.382;9.020;2022-12-29T20:59:08;8.60;99.90
10306;DHT22;5198;52.382;9.020;2022-12-29T21:03:28;8.60;99.90
10306;DHT22;5198;52.382;9.020;2022-12-29T21:07:32;8.60;99.90
10306;DHT22;5198;52.382;9.020;2022-12-29T21:11:38;8.60;99.90
10306;DHT22;5198;52.382;9.020;2022-12-29T21:15:45;8.60;99.90
10306;DHT22;5198;52.382;9.020;2022-12-29T21:19:49;8.70;99.90
10306;DHT22;5198;52.382;9.020;2022-12-29T21:23:52;8.60;99.90
10306;DHT22;5198;52.382;9.020;2022-12-29T21:27:56;8.70;99.90
10306;DHT22;5198;52.382;9.020;2022-12-29T21:32:00;8.70;99.90
10306;DHT22;5198;52.382;9.020;2022-12-29T21:36:07;8.60;99.90
10306;DHT22;5198;52.382;9.020;2022-12-29T21:40:10;8.60;99.90
10306;DHT22;5198;52.382;9.020;2022-12-29T21:44:14;8.60;99.90
10306;DHT22;5198;52.382;9.020;2022-12-29T21:48:35;8.60;99.90
10306;DHT22;5198;52.382;9.020;2022-12-29T21:52:38;8.60;99.90
10306;DHT22;5198;52.382;9.020;2022-12-29T21:56:41;8.60;99.90
10306;DHT22;5198;52.382;9.020;2022-12-29T22:00:46;8.60;99.90
10306;DHT22;5198;52.382;9.020;2022-12-29T22:05:08;8.60;99.90
10306;DHT22;5198;52.382;9.020;2022-12-29T22:09:29;8.60;99.90
10306;DHT22;5198;52.382;9.020;2022-12-29T22:13:49;8.60;99.90
10306;DHT22;5198;52.382;9.020;2022-12-29T22:17:56;8.60;99.90
10306;DHT22;5198;52.382;9.020;2022-12-29T22:22:01;8.60;99.90
10306;DHT22;5198;52.382;9.020;2022-12-29T22:26:04;8.60;99.90
10306;DHT22;5198;52.382;9.020;2022-12-29T22:30:07;8.60;99.90
10306;DHT22;5198;52.382;9.020;2022-12-29T22:34:10;8.60;99.90
10306;DHT22;5198;52.382;9.020;2022-12-29T22:38:16;8.60;99.90
10306;DHT22;5198;52.382;9.020;2022-12-29T22:42:19;8.60;99.90
10306;DHT22;5198;52.382;9.020;2022-12-29T22:46:21;8.60;99.90
10306;DHT22;5198;52.382;9.020;2022-12-29T22:50:24;8.60;99.90
10306;DHT22;5198;52.382;9.020;2022-12-29T22:54:29;8.60;99.90
10306;DHT22;5198;52.382;9.020;2022-12-29T22:58:32;8.60;99.90
10306;DHT22;5198;52.382;9.020;2022-12-29T23:02:35;8.60;99.90
10306;DHT22;5198;52.382;9.020;2022-12-29T23:06:38;8.60;99.90
10306;DHT22;5198;52.382;9.020;2022-12-29T23:10:43;8.60;99.90
10306;DHT22;5198;52.382;9.020;2022-12-29T23:14:45;8.60;99.90
10306;DHT22;5198;52.382;9.020;2022-12-29T23:18:49;8.60;99.90
10306;DHT22;5198;52.382;9.020;2022-12-29T23:22:52;8.60;99.90
10306;DHT22;5198;52.382;9.020;2022-12-29T23:26:56;8.60;99.90
10306;DHT22;5198;52.382;9.020;2022-12-29T23:30:59;8.50;99.90
10306;DHT22;5198;52.382;9.020;2022-12-29T23:35:02;8.50;99.90
10306;DHT22;5198;52.382;9.020;2022-12-29T23:39:05;8.50;99.90
10306;DHT22;5198;52.382;9.020;2022-12-29T23:43:11;8.50;99.90
10306;DHT22;5198;52.382;9.020;2022-12-29T23:47:14;8.50;99.90
10306;DHT22;5198;52.382;9.020;2022-12-29T23:51:17;8.50;99.90
10306;DHT22;5198;52.382;9.020;2022-12-29T23:55:20;8.50;99.90
10306;DHT22;5198;52.382;9.020;2022-12-29T23:59:24;8.50;99.90
